Time;durP1;ratioP1;P1;durP2;ratioP2;P2;SDS_P1;SDS_P2;PMS_P1;PMS_P2;Temp;Humidity;BMP_temperature;BMP_pressure;BME280_temperature;BME280_humidity;BME280_pressure;Samples;Min_cycle;Max_cycle;Signal;HPM_P1;HPM_P2
2022/10/12 00:01:21;;;;;;;4.65;2.85;;;18.40;99.90;;;;;;4211889;28;20210;-72
2022/10/12 00:03:24;;;;;;;5.88;3.15;;;18.40;99.90;;;;;;4208763;28;20210;-72
2022/10/12 00:05:28;;;;;;;6.13;3.45;;;18.40;99.90;;;;;;4210835;28;20272;-72
2022/10/12 00:07:30;;;;;;;6.70;3.45;;;18.40;99.90;;;;;;4211824;28;20275;-72
2022/10/12 00:09:32;;;;;;;4.97;3.00;;;18.30;99.90;;;;;;4211901;28;20279;-72
2022/10/12 00:11:35;;;;;;;5.22;2.92;;;18.40;99.90;;;;;;4212165;28;20724;-72
2022/10/12 00:13:37;;;;;;;4.45;2.85;;;18.30;99.90;;;;;;4211695;28;20671;-72
2022/10/12 00:15:40;;;;;;;7.65;3.50;;;18.30;99.90;;;;;;4211549;28;20218;-72
2022/10/12 00:17:42;;;;;;;7.32;3.15;;;18.30;99.90;;;;;;4211371;28;20267;-72
2022/10/12 00:19:45;;;;;;;5.18;3.50;;;18.30;99.90;;;;;;4211992;28;20222;-72
2022/10/12 00:21:48;;;;;;;4.88;2.92;;;18.30;99.90;;;;;;4211373;28;20213;-72
2022/10/12 00:23:51;;;;;;;5.13;3.10;;;18.30;99.90;;;;;;4211591;28;20975;-72
2022/10/12 00:25:53;;;;;;;6.15;3.03;;;18.30;99.90;;;;;;4211528;28;20672;-71
2022/10/12 00:27:55;;;;;;;7.00;3.35;;;18.30;99.90;;;;;;4211352;28;20271;-72
2022/10/12 00:29:58;;;;;;;6.18;3.60;;;18.30;99.90;;;;;;4211625;28;20263;-72
2022/10/12 00:32:00;;;;;;;4.28;2.75;;;18.30;99.90;;;;;;4208161;28;20268;-72
2022/10/12 00:34:03;;;;;;;4.18;3.10;;;18.30;99.90;;;;;;4212066;28;20214;-72
2022/10/12 00:36:14;;;;;;;5.80;3.25;;;18.30;99.90;;;;;;4208847;28;20218;-72
2022/10/12 00:38:17;;;;;;;5.53;2.97;;;18.30;99.90;;;;;;4211829;28;20225;-72
2022/10/12 00:40:20;;;;;;;6.00;3.40;;;18.30;99.90;;;;;;4210826;28;20755;-72
2022/10/12 00:42:22;;;;;;;4.28;3.03;;;18.30;99.90;;;;;;4212321;28;20202;-72
2022/10/12 00:44:46;;;;;;;7.15;3.28;;;18.30;99.90;;;;;;4211313;28;20234;-72
2022/10/12 00:46:48;;;;;;;5.88;3.40;;;18.30;99.90;;;;;;4206763;28;20283;-72
2022/10/12 00:48:55;;;;;;;4.07;3.20;;;18.30;99.90;;;;;;4210910;28;20276;-71
2022/10/12 00:51:00;;;;;;;4.78;2.83;;;18.30;99.90;;;;;;4211370;28;20218;-71
2022/10/12 00:53:06;;;;;;;4.90;3.25;;;18.30;99.90;;;;;;4211137;28;20667;-71
2022/10/12 00:55:12;;;;;;;6.65;3.42;;;18.30;99.90;;;;;;4210838;28;20267;-71
2022/10/12 00:57:17;;;;;;;6.70;3.75;;;18.30;99.90;;;;;;4210896;28;20286;-71
2022/10/12 00:59:22;;;;;;;5.43;3.00;;;18.30;99.90;;;;;;4211302;28;20257;-71
2022/10/12 01:01:24;;;;;;;5.18;3.17;;;18.30;99.90;;;;;;4214051;28;20210;-72
2022/10/12 01:03:27;;;;;;;7.03;3.60;;;18.30;99.90;;;;;;4206029;28;20221;-72
2022/10/12 01:05:29;;;;;;;6.72;3.15;;;18.30;99.90;;;;;;4215538;28;20226;-71
2022/10/12 01:07:32;;;;;;;4.78;3.40;;;18.20;99.90;;;;;;4213959;28;20244;-71
2022/10/12 01:09:34;;;;;;;5.85;3.50;;;18.20;99.90;;;;;;4216381;28;20206;-71
2022/10/12 01:11:37;;;;;;;6.20;3.17;;;18.20;99.90;;;;;;4217870;28;20270;-71
2022/10/12 01:13:40;;;;;;;5.20;3.38;;;18.20;99.90;;;;;;4218553;28;20329;-72
2022/10/12 01:15:51;;;;;;;5.38;3.45;;;18.20;99.90;;;;;;4216191;28;20258;-72
2022/10/12 01:18:03;;;;;;;6.38;3.50;;;18.20;99.90;;;;;;4218226;28;20266;-72
2022/10/12 01:20:28;;;;;;;6.57;3.72;;;18.20;99.90;;;;;;4218402;28;20293;-72
2022/10/12 01:22:37;;;;;;;4.85;3.15;;;18.20;99.90;;;;;;4216303;28;20226;-71
2022/10/12 01:24:49;;;;;;;5.72;3.35;;;18.20;99.90;;;;;;4215804;28;20294;-72
2022/10/12 01:27:25;;;;;;;4.78;3.45;;;18.20;99.90;;;;;;4220427;28;20234;-72
2022/10/12 01:30:06;;;;;;;8.77;3.72;;;18.20;99.90;;;;;;4214580;28;20261;-71
2022/10/12 01:32:17;;;;;;;5.00;3.22;;;18.20;99.90;;;;;;4214284;28;20226;-71
2022/10/12 01:34:27;;;;;;;5.03;3.20;;;18.20;99.90;;;;;;4217829;28;20214;-71
2022/10/12 01:36:35;;;;;;;5.95;3.47;;;18.20;99.90;;;;;;4212908;28;20215;-71
2022/10/12 01:38:47;;;;;;;5.70;3.53;;;18.20;99.90;;;;;;4215240;28;20226;-71
2022/10/12 01:40:56;;;;;;;5.68;3.50;;;18.20;99.90;;;;;;4219203;28;20263;-72
2022/10/12 01:42:59;;;;;;;6.60;3.75;;;18.20;99.90;;;;;;4220260;28;20643;-72
2022/10/12 01:45:03;;;;;;;5.38;3.25;;;18.10;99.90;;;;;;4219075;28;20242;-71
2022/10/12 01:47:07;;;;;;;5.88;3.70;;;18.20;99.90;;;;;;4221670;28;20206;-72
2022/10/12 01:49:10;;;;;;;6.35;3.60;;;18.10;99.90;;;;;;4218085;28;20211;-72
2022/10/12 01:51:17;;;;;;;5.05;3.20;;;18.10;99.90;;;;;;4217212;28;20215;-71
2022/10/12 01:53:27;;;;;;;5.97;3.60;;;18.10;99.90;;;;;;4216867;28;20221;-72
2022/10/12 01:55:39;;;;;;;4.28;2.90;;;18.20;99.90;;;;;;4222150;28;20228;-71
2022/10/12 01:57:52;;;;;;;5.20;3.70;;;18.20;99.90;;;;;;4218419;28;20218;-71
2022/10/12 02:00:03;;;;;;;5.63;3.60;;;18.10;99.90;;;;;;4220964;28;20214;-71
2022/10/12 02:02:16;;;;;;;4.95;3.35;;;18.10;99.90;;;;;;4220790;28;20218;-71
2022/10/12 02:04:26;;;;;;;5.13;3.05;;;18.10;99.90;;;;;;4218039;28;20214;-71
2022/10/12 02:06:38;;;;;;;6.47;3.63;;;18.10;99.90;;;;;;4221021;28;20245;-71
2022/10/12 02:08:47;;;;;;;5.60;3.28;;;18.10;99.90;;;;;;4218314;28;20226;-71
2022/10/12 02:10:53;;;;;;;6.35;3.67;;;18.10;99.90;;;;;;4218720;28;20271;-71
2022/10/12 02:12:57;;;;;;;5.70;3.50;;;18.10;99.90;;;;;;4220372;28;20331;-72
2022/10/12 02:15:02;;;;;;;6.05;3.47;;;18.10;99.90;;;;;;4217700;28;20222;-71
2022/10/12 02:17:11;;;;;;;5.03;3.35;;;18.10;99.90;;;;;;4218413;28;20256;-71
2022/10/12 02:19:17;;;;;;;5.82;3.45;;;18.10;99.90;;;;;;4216287;28;20651;-71
2022/10/12 02:21:22;;;;;;;7.32;3.40;;;18.10;99.90;;;;;;4220483;28;20214;-71
2022/10/12 02:23:26;;;;;;;6.85;3.60;;;18.10;99.90;;;;;;4218452;28;20209;-71
2022/10/12 02:25:29;;;;;;;4.47;3.60;;;18.00;99.90;;;;;;4221217;28;20267;-72
2022/10/12 02:27:34;;;;;;;5.28;3.58;;;18.10;99.90;;;;;;4223820;28;20210;-72
2022/10/12 02:29:40;;;;;;;5.13;3.53;;;18.00;99.90;;;;;;4217815;28;20203;-72
2022/10/12 02:31:47;;;;;;;6.65;3.55;;;18.00;99.90;;;;;;4215333;28;20289;-72
2022/10/12 02:34:00;;;;;;;6.95;3.60;;;18.10;99.90;;;;;;4222223;28;20241;-73
2022/10/12 02:36:06;;;;;;;4.85;3.30;;;18.10;99.90;;;;;;4214598;28;20222;-72
2022/10/12 02:38:13;;;;;;;6.15;3.47;;;18.00;99.90;;;;;;4222307;28;20268;-72
2022/10/12 02:40:21;;;;;;;5.80;3.50;;;18.00;99.90;;;;;;4215538;28;20263;-71
2022/10/12 02:42:28;;;;;;;6.47;3.67;;;18.00;99.90;;;;;;4218415;28;20209;-71
2022/10/12 02:44:34;;;;;;;7.05;4.25;;;18.10;99.90;;;;;;4217240;28;20283;-71
2022/10/12 02:46:38;;;;;;;5.95;3.33;;;18.00;99.90;;;;;;4221387;28;20634;-72
2022/10/12 02:48:43;;;;;;;5.72;3.78;;;18.00;99.90;;;;;;4217295;28;20226;-72
2022/10/12 02:50:51;;;;;;;6.43;3.80;;;18.00;99.90;;;;;;4215409;28;20218;-71
2022/10/12 02:52:54;;;;;;;6.47;3.58;;;18.00;99.90;;;;;;4211720;28;20221;-72
2022/10/12 02:54:56;;;;;;;6.57;3.65;;;18.00;99.90;;;;;;4218626;28;20279;-72
2022/10/12 02:56:59;;;;;;;6.10;3.33;;;18.00;99.90;;;;;;4215483;28;20283;-72
2022/10/12 02:59:01;;;;;;;6.65;3.70;;;18.00;99.90;;;;;;4216896;28;20623;-72
2022/10/12 03:01:04;;;;;;;4.80;3.92;;;18.00;99.90;;;;;;4218955;28;20256;-72
2022/10/12 03:03:06;;;;;;;4.60;3.33;;;18.00;99.90;;;;;;4209890;28;20235;-72
2022/10/12 03:05:08;;;;;;;5.72;3.80;;;18.00;99.90;;;;;;4216138;28;20263;-72
2022/10/12 03:07:12;;;;;;;6.05;4.05;;;17.90;99.90;;;;;;4218801;28;20226;-72
2022/10/12 03:09:14;;;;;;;5.85;3.53;;;18.00;99.90;;;;;;4219937;28;20650;-72
2022/10/12 03:11:16;;;;;;;7.30;3.75;;;18.00;99.90;;;;;;4219969;28;20625;-73
2022/10/12 03:13:19;;;;;;;5.90;3.53;;;18.00;99.90;;;;;;4217497;28;20214;-72
2022/10/12 03:15:21;;;;;;;6.32;3.45;;;18.00;99.90;;;;;;4212511;28;21067;-72
2022/10/12 03:17:23;;;;;;;6.18;3.70;;;18.00;99.90;;;;;;4212405;28;20256;-72
2022/10/12 03:19:26;;;;;;;7.65;3.90;;;18.00;99.90;;;;;;4212840;28;20214;-72
2022/10/12 03:21:28;;;;;;;4.97;3.55;;;18.00;99.90;;;;;;4212743;28;20268;-72
2022/10/12 03:23:32;;;;;;;6.13;3.90;;;18.00;99.90;;;;;;4209069;28;20279;-72
2022/10/12 03:25:34;;;;;;;6.22;3.85;;;18.00;99.90;;;;;;4212441;28;20218;-71
2022/10/12 03:27:36;;;;;;;7.95;3.65;;;17.90;99.90;;;;;;4212798;28;20272;-71
2022/10/12 03:29:39;;;;;;;5.82;3.97;;;17.90;99.90;;;;;;4212810;28;20284;-71
2022/10/12 03:31:41;;;;;;;5.45;3.88;;;17.90;99.90;;;;;;4212647;28;20617;-71
2022/10/12 03:33:43;;;;;;;7.25;3.90;;;17.90;99.90;;;;;;4212339;28;20222;-71
2022/10/12 03:35:46;;;;;;;6.70;3.90;;;17.90;99.90;;;;;;4212343;28;20214;-72
2022/10/12 03:37:48;;;;;;;4.53;3.20;;;17.90;99.90;;;;;;4212199;28;20268;-72
2022/10/12 03:39:52;;;;;;;6.53;3.80;;;17.90;99.90;;;;;;4212362;28;20214;-72
2022/10/12 03:41:54;;;;;;;6.75;3.83;;;17.90;99.90;;;;;;4212627;28;20211;-72
2022/10/12 03:43:57;;;;;;;5.70;3.90;;;17.90;99.90;;;;;;4212492;28;20214;-72
2022/10/12 03:45:59;;;;;;;6.28;4.13;;;17.90;99.90;;;;;;4206503;28;20303;-72
2022/10/12 03:48:02;;;;;;;5.22;3.40;;;17.90;99.90;;;;;;4212019;28;20210;-72
2022/10/12 03:50:05;;;;;;;6.13;3.75;;;17.90;99.90;;;;;;4209652;28;20621;-72
2022/10/12 03:52:08;;;;;;;6.13;3.55;;;17.90;99.90;;;;;;4212316;28;20211;-72
2022/10/12 03:54:10;;;;;;;4.60;3.25;;;17.90;99.90;;;;;;4209823;28;20210;-72
2022/10/12 03:56:13;;;;;;;5.90;3.42;;;17.90;99.90;;;;;;4214490;28;20227;-72
2022/10/12 03:58:16;;;;;;;6.53;4.03;;;17.90;99.90;;;;;;4212146;28;20230;-72
2022/10/12 04:00:18;;;;;;;5.93;3.83;;;17.90;99.90;;;;;;4213409;28;20250;-72
2022/10/12 04:02:21;;;;;;;6.20;4.00;;;17.90;99.90;;;;;;4213144;28;20222;-72
2022/10/12 04:04:23;;;;;;;4.95;3.65;;;17.90;99.90;;;;;;4211535;28;20231;-72
2022/10/12 04:06:25;;;;;;;5.63;3.70;;;17.90;99.90;;;;;;4212185;28;20279;-72
2022/10/12 04:08:27;;;;;;;4.32;3.13;;;17.90;99.90;;;;;;4211854;28;20850;-72
2022/10/12 04:10:30;;;;;;;5.93;3.78;;;17.90;99.90;;;;;;4211842;28;20226;-72
2022/10/12 04:12:33;;;;;;;6.32;3.75;;;17.90;99.90;;;;;;4212648;28;20222;-72
2022/10/12 04:14:36;;;;;;;7.07;4.10;;;17.90;99.90;;;;;;4211462;28;20283;-72
2022/10/12 04:16:38;;;;;;;5.30;3.90;;;17.90;99.90;;;;;;4212027;28;21014;-71
2022/10/12 04:18:40;;;;;;;7.35;3.83;;;17.90;99.90;;;;;;4212164;28;20225;-71
2022/10/12 04:20:43;;;;;;;7.00;4.20;;;17.90;99.90;;;;;;4210821;28;20259;-71
2022/10/12 04:22:45;;;;;;;5.93;3.88;;;17.90;99.90;;;;;;4211587;28;20214;-71
2022/10/12 04:24:47;;;;;;;6.13;4.07;;;17.90;99.90;;;;;;4211593;28;20676;-71
2022/10/12 04:26:49;;;;;;;5.05;3.60;;;17.90;99.90;;;;;;4211224;28;20246;-71
2022/10/12 04:28:53;;;;;;;5.32;3.60;;;17.90;99.90;;;;;;4210941;28;20666;-72
2022/10/12 04:30:55;;;;;;;6.07;3.92;;;17.90;99.90;;;;;;4211020;28;20626;-72
2022/10/12 04:32:58;;;;;;;5.82;3.63;;;17.90;99.90;;;;;;4211740;28;20279;-72
2022/10/12 04:35:00;;;;;;;7.15;4.13;;;17.90;99.90;;;;;;4211613;28;20248;-72
2022/10/12 04:37:03;;;;;;;5.35;3.75;;;17.80;99.90;;;;;;4211193;28;20215;-72
2022/10/12 04:39:05;;;;;;;5.30;4.03;;;17.90;99.90;;;;;;4211722;28;20211;-72
2022/10/12 04:41:07;;;;;;;5.25;3.67;;;17.80;99.90;;;;;;4204039;28;20271;-72
2022/10/12 04:43:10;;;;;;;6.03;3.95;;;17.80;99.90;;;;;;4204320;28;20215;-72
2022/10/12 04:45:14;;;;;;;6.15;3.50;;;17.90;99.90;;;;;;4211972;28;20207;-71
2022/10/12 04:47:16;;;;;;;6.20;3.80;;;17.80;99.90;;;;;;4210914;28;20634;-71
2022/10/12 04:49:18;;;;;;;6.35;4.10;;;17.90;99.90;;;;;;4211187;28;20251;-71
2022/10/12 04:51:21;;;;;;;5.40;3.83;;;17.80;99.90;;;;;;4211442;28;20622;-71
2022/10/12 04:53:23;;;;;;;5.35;3.97;;;17.80;99.90;;;;;;4212825;28;20218;-71
2022/10/12 04:55:26;;;;;;;6.70;3.78;;;17.80;99.90;;;;;;4219406;28;20620;-71
2022/10/12 04:57:29;;;;;;;6.15;4.03;;;17.80;99.90;;;;;;4216890;28;20252;-71
2022/10/12 04:59:31;;;;;;;4.90;3.75;;;17.90;99.90;;;;;;4214349;28;20214;-71
2022/10/12 05:01:35;;;;;;;7.15;4.05;;;17.90;99.90;;;;;;4219855;28;20259;-72
2022/10/12 05:03:37;;;;;;;6.43;3.90;;;17.80;99.90;;;;;;4218860;28;20263;-72
2022/10/12 05:05:39;;;;;;;5.50;3.72;;;17.80;99.90;;;;;;4219661;28;20274;-72
2022/10/12 05:07:42;;;;;;;4.88;3.47;;;17.90;99.90;;;;;;4216875;28;20237;-72
2022/10/12 05:09:44;;;;;;;7.70;4.05;;;17.90;99.90;;;;;;4215825;28;20229;-72
2022/10/12 05:11:46;;;;;;;6.03;4.32;;;17.80;99.90;;;;;;4215761;28;20263;-72
2022/10/12 05:13:49;;;;;;;5.75;4.15;;;17.90;99.90;;;;;;4217453;28;20213;-72
2022/10/12 05:15:51;;;;;;;4.57;3.72;;;17.90;99.90;;;;;;4220134;28;20275;-72
2022/10/12 05:17:55;;;;;;;6.43;3.88;;;17.80;99.90;;;;;;4218020;28;20255;-72
2022/10/12 05:19:57;;;;;;;5.28;3.75;;;17.80;99.90;;;;;;4222313;28;20330;-72
2022/10/12 05:21:59;;;;;;;7.88;4.20;;;17.80;99.90;;;;;;4219369;28;20214;-71
2022/10/12 05:24:02;;;;;;;6.00;3.85;;;17.80;99.90;;;;;;4220062;28;20222;-71
2022/10/12 05:26:04;;;;;;;7.38;3.88;;;17.80;99.90;;;;;;4222464;28;20342;-72
2022/10/12 05:28:06;;;;;;;5.35;4.18;;;17.80;99.90;;;;;;4220914;28;20294;-71
2022/10/12 05:30:09;;;;;;;6.57;3.65;;;17.90;99.90;;;;;;4220945;28;20269;-72
2022/10/12 05:32:12;;;;;;;6.15;4.10;;;17.80;99.90;;;;;;4226278;28;20601;-71
2022/10/12 05:34:15;;;;;;;5.88;3.65;;;17.80;99.90;;;;;;4220657;28;20217;-72
2022/10/12 05:36:18;;;;;;;5.97;3.92;;;17.80;99.90;;;;;;4221154;28;20218;-72
2022/10/12 05:38:20;;;;;;;5.82;4.07;;;17.80;99.90;;;;;;4220916;28;20666;-71
2022/10/12 05:40:22;;;;;;;7.50;4.40;;;17.80;99.90;;;;;;4222808;28;20210;-71
2022/10/12 05:42:25;;;;;;;5.90;3.70;;;17.80;99.90;;;;;;4220490;28;20264;-72
2022/10/12 05:44:27;;;;;;;7.53;4.20;;;17.80;99.90;;;;;;4220619;28;20243;-72
2022/10/12 05:46:29;;;;;;;7.00;3.78;;;17.80;99.90;;;;;;4218960;28;20217;-72
2022/10/12 05:48:32;;;;;;;8.15;4.80;;;17.80;99.90;;;;;;4221068;28;20298;-72
2022/10/12 05:50:35;;;;;;;6.35;3.78;;;17.80;99.90;;;;;;4219273;28;20214;-71
2022/10/12 05:52:38;;;;;;;5.63;3.63;;;17.80;99.90;;;;;;4219361;28;20267;-71
2022/10/12 05:54:40;;;;;;;5.22;3.88;;;17.80;99.90;;;;;;4218680;28;20222;-72
2022/10/12 05:56:42;;;;;;;5.80;3.67;;;17.80;99.90;;;;;;4218458;28;20237;-72
2022/10/12 05:58:45;;;;;;;4.93;3.63;;;17.80;99.90;;;;;;4222850;28;20207;-72
2022/10/12 06:00:47;;;;;;;6.22;3.97;;;17.80;99.90;;;;;;4220800;28;20226;-72
2022/10/12 06:02:50;;;;;;;5.97;4.05;;;17.80;99.90;;;;;;4216464;28;20270;-73
2022/10/12 06:04:52;;;;;;;4.63;3.67;;;17.80;99.90;;;;;;4220724;28;20270;-72
2022/10/12 06:06:56;;;;;;;6.53;3.42;;;17.80;99.90;;;;;;4220030;28;20275;-72
2022/10/12 06:08:58;;;;;;;5.25;3.85;;;17.80;99.90;;;;;;4221101;28;20637;-72
2022/10/12 06:11:01;;;;;;;7.90;3.47;;;17.80;99.90;;;;;;4217552;28;20222;-72
2022/10/12 06:13:03;;;;;;;4.95;3.75;;;17.80;99.90;;;;;;4216449;28;20211;-72
2022/10/12 06:15:07;;;;;;;6.65;3.70;;;17.80;99.90;;;;;;4216830;28;20678;-72
2022/10/12 06:17:09;;;;;;;4.55;3.65;;;17.80;99.90;;;;;;4222437;28;20210;-72
2022/10/12 06:19:12;;;;;;;6.03;3.80;;;17.70;99.90;;;;;;4219153;28;20259;-72
2022/10/12 06:21:15;;;;;;;6.03;4.07;;;17.80;99.90;;;;;;4215819;28;20291;-71
2022/10/12 06:23:19;;;;;;;7.05;3.67;;;17.80;99.90;;;;;;4220491;28;20686;-71
2022/10/12 06:25:21;;;;;;;5.60;3.80;;;17.70;99.90;;;;;;4221428;28;20219;-71
2022/10/12 06:27:24;;;;;;;8.50;4.38;;;17.80;99.90;;;;;;4219491;28;20255;-71
2022/10/12 06:29:26;;;;;;;6.40;3.88;;;17.80;99.90;;;;;;4209805;28;20206;-71
2022/10/12 06:31:29;;;;;;;5.90;3.78;;;17.80;99.90;;;;;;4216442;28;20642;-71
2022/10/12 06:33:31;;;;;;;5.03;3.80;;;17.70;99.90;;;;;;4215430;28;20214;-72
2022/10/12 06:35:34;;;;;;;6.85;3.90;;;17.80;99.90;;;;;;4216966;28;20227;-72
2022/10/12 06:37:36;;;;;;;7.35;3.90;;;17.70;99.90;;;;;;4217242;28;20210;-72
2022/10/12 06:39:40;;;;;;;5.82;3.80;;;17.70;99.90;;;;;;4216868;28;20214;-72
2022/10/12 06:41:42;;;;;;;6.50;4.20;;;17.80;99.90;;;;;;4218793;28;20222;-72
2022/10/12 06:43:44;;;;;;;7.30;4.55;;;17.80;99.90;;;;;;4218217;28;20215;-72
2022/10/12 06:45:47;;;;;;;9.18;4.25;;;17.80;99.90;;;;;;4216225;28;20687;-72
2022/10/12 06:47:49;;;;;;;5.47;3.72;;;17.80;99.90;;;;;;4216604;28;20330;-72
2022/10/12 06:49:51;;;;;;;7.55;3.80;;;17.80;99.90;;;;;;4218464;28;20727;-72
2022/10/12 06:51:54;;;;;;;6.38;4.38;;;17.80;99.90;;;;;;4217272;28;20612;-71
2022/10/12 06:53:56;;;;;;;7.35;3.58;;;17.80;99.90;;;;;;4215542;28;20214;-73
2022/10/12 06:56:04;;;;;;;13.85;4.53;;;17.70;99.90;;;;;;4206549;28;20308;-76
2022/10/12 06:58:09;;;;;;;14.38;4.50;;;17.70;99.90;;;;;;4207042;28;20214;-76
2022/10/12 07:00:12;;;;;;;7.75;4.00;;;17.80;99.90;;;;;;4206009;28;20280;-76
2022/10/12 07:02:17;;;;;;;7.13;4.18;;;17.80;99.90;;;;;;4206596;28;20256;-76
2022/10/12 07:04:21;;;;;;;8.40;3.97;;;17.80;99.90;;;;;;4210608;28;20727;-77
2022/10/12 07:06:25;;;;;;;5.88;3.97;;;17.90;99.90;;;;;;4198667;28;20618;-78
2022/10/12 07:08:27;;;;;;;5.63;3.65;;;17.90;99.90;;;;;;4199622;28;20231;-77
2022/10/12 07:10:29;;;;;;;5.15;3.80;;;18.00;99.90;;;;;;4206387;28;20210;-76
2022/10/12 07:12:34;;;;;;;6.97;4.22;;;18.20;99.90;;;;;;4206457;28;20608;-76
2022/10/12 07:14:37;;;;;;;5.57;3.28;;;18.70;99.90;;;;;;4206823;28;20268;-77
2022/10/12 07:16:39;;;;;;;8.57;3.70;;;19.30;99.90;;;;;;4203472;28;20253;-78
2022/10/12 07:18:41;;;;;;;5.78;4.25;;;20.10;99.90;;;;;;4205040;28;20211;-78
2022/10/12 07:20:44;;;;;;;9.45;4.22;;;21.00;99.90;;;;;;4208585;28;20219;-78
2022/10/12 07:22:46;;;;;;;10.00;4.05;;;21.30;99.90;;;;;;4204755;28;20219;-78
2022/10/12 07:24:48;;;;;;;4.82;3.72;;;21.70;99.90;;;;;;4208473;28;20671;-78
2022/10/12 07:26:51;;;;;;;7.45;4.30;;;21.90;99.90;;;;;;4204141;28;20291;-77
2022/10/12 07:28:55;;;;;;;6.85;4.10;;;22.50;99.90;;;;;;4199100;28;20231;-77
2022/10/12 07:31:01;;;;;;;6.63;3.95;;;22.70;99.90;;;;;;4204833;28;20268;-78
2022/10/12 07:33:04;;;;;;;7.03;4.22;;;22.40;99.90;;;;;;4205561;28;20214;-78
2022/10/12 07:35:07;;;;;;;7.88;4.30;;;22.20;99.90;;;;;;4203257;28;20318;-78
2022/10/12 07:37:09;;;;;;;8.05;4.40;;;22.20;99.90;;;;;;4208558;28;20231;-77
2022/10/12 07:39:11;;;;;;;7.70;3.90;;;22.40;99.90;;;;;;4206656;28;20374;-77
2022/10/12 07:41:14;;;;;;;14.60;4.47;;;22.30;99.90;;;;;;4218428;28;20576;-75
2022/10/12 07:43:16;;;;;;;7.72;4.13;;;22.40;99.90;;;;;;4214755;28;20272;-77
2022/10/12 07:45:20;;;;;;;11.98;5.05;;;22.40;99.90;;;;;;4204204;28;20656;-77
2022/10/12 07:47:23;;;;;;;7.68;4.53;;;22.40;99.90;;;;;;4202935;28;20237;-76
2022/10/12 07:49:26;;;;;;;8.38;4.07;;;22.30;99.90;;;;;;4205601;28;20715;-78
2022/10/12 07:51:29;;;;;;;7.88;4.40;;;22.30;99.90;;;;;;4205560;28;20265;-77
2022/10/12 07:53:33;;;;;;;7.80;4.57;;;22.40;99.90;;;;;;4204781;28;20611;-76
2022/10/12 07:55:35;;;;;;;8.65;4.53;;;22.50;99.90;;;;;;4202040;28;21165;-75
2022/10/12 07:57:38;;;;;;;8.43;4.43;;;22.30;99.90;;;;;;4204633;28;20279;-77
2022/10/12 07:59:40;;;;;;;9.27;4.45;;;22.40;99.90;;;;;;4197529;28;20338;-76
2022/10/12 08:01:44;;;;;;;6.10;4.32;;;22.60;99.90;;;;;;4202741;28;20298;-78
2022/10/12 08:03:51;;;;;;;8.27;4.32;;;22.70;99.90;;;;;;4202643;28;20206;-78
2022/10/12 08:05:53;;;;;;;10.13;4.60;;;22.20;99.90;;;;;;4204723;28;20267;-77
2022/10/12 08:07:56;;;;;;;5.78;4.05;;;22.40;99.90;;;;;;4202639;28;20241;-78
2022/10/12 08:09:58;;;;;;;6.70;3.95;;;22.70;99.90;;;;;;4203236;28;20590;-77
2022/10/12 08:12:00;;;;;;;9.20;4.25;;;22.70;99.90;;;;;;4204599;28;20215;-77
2022/10/12 08:14:04;;;;;;;8.45;4.38;;;22.80;99.90;;;;;;4203393;28;20268;-76
2022/10/12 08:16:11;;;;;;;4.68;3.90;;;23.20;99.90;;;;;;4201838;28;20284;-75
2022/10/12 08:18:14;;;;;;;7.72;4.20;;;23.40;99.90;;;;;;4203012;28;20660;-77
2022/10/12 08:20:17;;;;;;;5.28;3.92;;;23.00;99.90;;;;;;4204234;28;20264;-76
2022/10/12 08:22:20;;;;;;;7.45;4.38;;;23.00;99.90;;;;;;4204736;28;20227;-75
2022/10/12 08:24:22;;;;;;;7.05;4.28;;;22.80;99.90;;;;;;4208020;28;20271;-76
2022/10/12 08:26:24;;;;;;;7.53;4.10;;;23.10;99.90;;;;;;4203857;28;20210;-76
2022/10/12 08:28:27;;;;;;;6.00;3.95;;;23.10;99.90;;;;;;4202645;28;20343;-76
2022/10/12 08:30:38;;;;;;;7.40;3.58;;;22.90;99.90;;;;;;4199635;28;20256;-76
2022/10/12 08:32:45;;;;;;;5.60;4.22;;;22.90;99.90;;;;;;4206372;28;20213;-76
2022/10/12 08:34:48;;;;;;;6.50;3.88;;;22.80;99.90;;;;;;4205638;28;20647;-77
2022/10/12 08:36:51;;;;;;;8.80;4.38;;;22.50;99.90;;;;;;4205371;28;20619;-76
2022/10/12 08:38:54;;;;;;;7.10;4.28;;;22.50;99.90;;;;;;4209315;28;20219;-77
2022/10/12 08:41:03;;;;;;;6.93;3.72;;;23.00;99.90;;;;;;4200916;28;20219;-77
2022/10/12 08:43:16;;;;;;;4.85;3.60;;;23.30;99.90;;;;;;4201653;28;20218;-74
2022/10/12 08:45:40;;;;;;;6.68;4.30;;;23.60;99.90;;;;;;4200331;28;20265;-78
2022/10/12 08:47:45;;;;;;;7.20;3.97;;;23.40;99.90;;;;;;4196640;28;20215;-77
2022/10/12 08:49:51;;;;;;;7.15;3.85;;;23.30;99.90;;;;;;4204582;28;20287;-76
2022/10/12 08:51:56;;;;;;;10.30;4.43;;;23.30;99.90;;;;;;4203439;28;20218;-76
2022/10/12 08:54:05;;;;;;;6.45;4.00;;;23.40;99.90;;;;;;4207513;28;20287;-76
2022/10/12 08:56:08;;;;;;;5.85;3.88;;;23.20;99.90;;;;;;4205040;28;20245;-76
2022/10/12 08:58:16;;;;;;;6.28;3.80;;;23.20;99.90;;;;;;4184979;28;20257;-75
2022/10/12 09:00:22;;;;;;;8.27;4.00;;;23.40;99.90;;;;;;4185752;28;20210;-77
2022/10/12 09:02:34;;;;;;;7.40;3.60;;;23.80;99.90;;;;;;4187672;28;20264;-79
2022/10/12 09:04:47;;;;;;;6.78;3.63;;;23.90;99.90;;;;;;4181857;28;20561;-75
2022/10/12 09:06:58;;;;;;;16.02;4.40;;;23.90;99.90;;;;;;4188235;28;20211;-77
2022/10/12 09:09:14;;;;;;;11.18;4.25;;;23.90;99.90;;;;;;4187168;28;20244;-73
2022/10/12 09:11:28;;;;;;;15.10;4.30;;;24.30;99.80;;;;;;4186399;28;20276;-73
2022/10/12 09:13:40;;;;;;;8.48;3.53;;;24.10;99.70;;;;;;4189689;28;20260;-76
2022/10/12 09:15:49;;;;;;;7.40;3.75;;;24.00;99.70;;;;;;4182622;28;20210;-78
2022/10/12 09:17:53;;;;;;;8.32;4.15;;;23.70;99.90;;;;;;4194157;28;20250;-79
2022/10/12 09:20:02;;;;;;;8.90;4.05;;;24.30;99.90;;;;;;4190526;28;20212;-77
2022/10/12 09:22:11;;;;;;;8.90;3.28;;;24.00;99.90;;;;;;4185053;28;20219;-77
2022/10/12 09:24:18;;;;;;;8.82;4.05;;;23.50;99.90;;;;;;4189654;28;20222;-73
2022/10/12 09:26:29;;;;;;;6.32;4.18;;;23.30;99.90;;;;;;4180892;28;20216;-77
2022/10/12 09:28:37;;;;;;;8.23;3.92;;;23.80;99.90;;;;;;4186007;28;20667;-77
2022/10/12 09:30:43;;;;;;;5.13;3.67;;;24.50;99.60;;;;;;4186733;28;20234;-75
2022/10/12 09:33:05;;;;;;;9.73;4.43;;;24.10;99.50;;;;;;4191241;28;20304;-74
2022/10/12 09:35:10;;;;;;;5.30;3.78;;;24.00;99.80;;;;;;4184906;28;20223;-74
2022/10/12 09:37:19;;;;;;;6.90;3.60;;;23.50;99.90;;;;;;4182051;28;20211;-74
2022/10/12 09:39:26;;;;;;;7.47;3.80;;;23.70;99.90;;;;;;4184064;28;20227;-71
2022/10/12 09:41:34;;;;;;;8.23;3.55;;;23.60;99.90;;;;;;4182829;28;20219;-71
2022/10/12 09:43:36;;;;;;;7.18;3.58;;;23.80;99.90;;;;;;4186084;28;20218;-73
2022/10/12 09:45:39;;;;;;;9.10;3.70;;;24.10;99.90;;;;;;4181657;28;20222;-73
2022/10/12 09:47:41;;;;;;;5.88;4.22;;;24.20;99.80;;;;;;4186569;28;20208;-74
2022/10/12 09:49:45;;;;;;;6.90;3.75;;;24.30;99.70;;;;;;4190173;28;20243;-78
2022/10/12 09:51:58;;;;;;;9.05;3.70;;;24.30;99.70;;;;;;4187433;28;20617;-73
2022/10/12 09:54:05;;;;;;;6.68;3.70;;;23.90;99.90;;;;;;4184676;28;20211;-79
2022/10/12 09:56:11;;;;;;;6.50;3.58;;;23.80;99.90;;;;;;4189601;28;20289;-79
2022/10/12 09:58:20;;;;;;;6.50;3.40;;;24.10;99.90;;;;;;4190075;28;20261;-73
2022/10/12 10:00:25;;;;;;;6.47;3.63;;;24.30;99.90;;;;;;4186785;28;20574;-74
2022/10/12 10:02:28;;;;;;;5.93;3.67;;;24.50;99.50;;;;;;4182095;28;20216;-78
2022/10/12 10:04:31;;;;;;;6.57;3.80;;;24.50;99.50;;;;;;4182360;28;20269;-77
2022/10/12 10:06:33;;;;;;;7.60;3.78;;;24.10;99.80;;;;;;4186647;28;20216;-77
2022/10/12 10:08:41;;;;;;;7.47;4.07;;;24.10;99.90;;;;;;4185888;28;20227;-76
2022/10/12 10:10:51;;;;;;;11.10;4.10;;;23.90;99.90;;;;;;4185296;28;20234;-75
2022/10/12 10:12:55;;;;;;;8.75;3.88;;;24.10;99.90;;;;;;4184680;28;20218;-76
2022/10/12 10:14:59;;;;;;;6.05;3.42;;;24.10;99.80;;;;;;4189166;28;20270;-76
2022/10/12 10:17:01;;;;;;;8.48;4.20;;;24.00;99.90;;;;;;4189688;28;20329;-76
2022/10/12 10:19:03;;;;;;;5.28;3.28;;;23.90;99.90;;;;;;4188624;28;20272;-76
2022/10/12 10:21:08;;;;;;;8.95;4.30;;;23.80;99.90;;;;;;4182808;28;20216;-76
2022/10/12 10:23:23;;;;;;;5.18;3.35;;;23.80;99.90;;;;;;4187630;28;20273;-79
2022/10/12 10:25:26;;;;;;;6.70;3.72;;;23.60;99.90;;;;;;4189407;28;20279;-79
2022/10/12 10:27:33;;;;;;;7.03;3.83;;;23.20;99.90;;;;;;4187869;28;20223;-79
2022/10/12 10:29:39;;;;;;;5.03;3.58;;;23.40;99.90;;;;;;4188213;28;20215;-77
2022/10/12 10:31:41;;;;;;;6.93;3.40;;;23.70;99.90;;;;;;4192244;28;20223;-78
2022/10/12 10:33:44;;;;;;;6.85;3.55;;;24.20;99.90;;;;;;4181207;28;20214;-78
2022/10/12 10:35:57;;;;;;;4.72;3.45;;;23.90;99.90;;;;;;4181722;28;20219;-79
2022/10/12 10:38:02;;;;;;;7.35;3.58;;;24.20;99.90;;;;;;4189011;28;20285;-79
2022/10/12 10:40:07;;;;;;;6.00;3.55;;;23.90;99.90;;;;;;4190065;28;20212;-78
2022/10/12 10:42:11;;;;;;;7.93;3.65;;;23.80;99.90;;;;;;4192925;28;20233;-77
2022/10/12 10:44:28;;;;;;;7.80;3.22;;;24.20;99.90;;;;;;4182501;28;20664;-77
2022/10/12 10:46:33;;;;;;;6.20;3.55;;;24.90;99.50;;;;;;4187044;28;20219;-78
2022/10/12 10:48:54;;;;;;;8.70;3.72;;;24.60;99.50;;;;;;4186159;28;20270;-77